Time;durP1;ratioP1;P1;durP2;ratioP2;P2;SDS_P1;SDS_P2;PMS_P1;PMS_P2;Temp;Humidity;BMP_temperature;BMP_pressure;BME280_temperature;BME280_humidity;BME280_pressure;Samples;Min_cycle;Max_cycle;Signal;HPM_P1;HPM_P2
2023/05/06 00:00:26;;;;;;;5.38;2.22;;;17.90;63.60;;;;;;4143004;28;20046;-64
2023/05/06 00:02:48;;;;;;;5.50;2.17;;;17.90;63.70;;;;;;4145046;28;20470;-65
2023/05/06 00:05:11;;;;;;;3.47;2.00;;;17.90;63.60;;;;;;4141982;28;20132;-65
2023/05/06 00:07:33;;;;;;;3.45;2.30;;;17.90;63.70;;;;;;4144808;28;20033;-65
2023/05/06 00:09:55;;;;;;;6.13;2.30;;;17.90;63.80;;;;;;4144028;28;20057;-62
2023/05/06 00:12:18;;;;;;;8.40;2.40;;;17.90;63.70;;;;;;4144306;28;20470;-63
2023/05/06 00:14:40;;;;;;;5.35;2.28;;;17.90;63.60;;;;;;4144062;28;20053;-63
2023/05/06 00:17:03;;;;;;;3.90;2.30;;;17.90;63.70;;;;;;4143653;28;20038;-61
2023/05/06 00:19:26;;;;;;;5.35;2.40;;;17.90;63.60;;;;;;4141986;28;20517;-63
2023/05/06 00:21:48;;;;;;;5.32;2.30;;;17.90;63.70;;;;;;4143923;28;20029;-64
2023/05/06 00:24:11;;;;;;;3.70;2.08;;;17.90;63.80;;;;;;4140570;28;20119;-64
2023/05/06 00:26:33;;;;;;;4.18;2.17;;;17.90;64.00;;;;;;4143588;28;20038;-64
2023/05/06 00:28:55;;;;;;;4.20;1.98;;;17.90;64.00;;;;;;4125876;28;20470;-64
2023/05/06 00:31:18;;;;;;;4.88;2.20;;;17.90;63.80;;;;;;4127068;28;20038;-67
2023/05/06 00:33:40;;;;;;;2.45;1.85;;;17.90;63.70;;;;;;4145385;28;20121;-67
2023/05/06 00:36:03;;;;;;;5.00;2.25;;;17.90;63.60;;;;;;4144496;28;20107;-66
2023/05/06 00:38:25;;;;;;;4.15;2.03;;;17.90;63.50;;;;;;4136532;28;20046;-64
2023/05/06 00:40:48;;;;;;;6.97;2.15;;;17.90;63.60;;;;;;4138846;28;20056;-62
2023/05/06 00:43:10;;;;;;;3.47;1.88;;;17.90;63.70;;;;;;4138307;28;20033;-63
2023/05/06 00:45:33;;;;;;;4.15;2.47;;;17.90;63.80;;;;;;4143853;28;20045;-63
2023/05/06 00:47:57;;;;;;;3.00;2.20;;;17.90;64.00;;;;;;4143297;28;20045;-61
2023/05/06 00:50:19;;;;;;;3.40;2.00;;;17.90;64.00;;;;;;4144552;28;20181;-64
2023/05/06 00:52:42;;;;;;;3.75;2.17;;;17.90;64.00;;;;;;4138710;28;20041;-63
2023/05/06 00:55:05;;;;;;;5.30;2.20;;;17.90;64.00;;;;;;4141361;28;20037;-65
2023/05/06 00:57:27;;;;;;;3.65;1.60;;;17.90;64.00;;;;;;4140027;28;20034;-62
2023/05/06 00:59:50;;;;;;;4.07;1.98;;;17.90;64.20;;;;;;4142381;28;20810;-59
2023/05/06 01:02:12;;;;;;;6.43;2.15;;;17.90;64.10;;;;;;4142176;28;20121;-65
2023/05/06 01:04:36;;;;;;;6.18;2.10;;;17.90;64.10;;;;;;4142537;28;20081;-63
2023/05/06 01:07:11;;;;;;;6.03;1.98;;;17.90;64.10;;;;;;4142301;28;20055;-64
2023/05/06 01:09:49;;;;;;;3.78;1.85;;;18.00;64.20;;;;;;4142802;28;20297;-63
2023/05/06 01:12:28;;;;;;;3.92;1.95;;;18.00;64.20;;;;;;4136269;28;20120;-63
2023/05/06 01:15:08;;;;;;;5.38;2.58;;;18.00;64.30;;;;;;4136593;28;20049;-62
2023/05/06 01:17:33;;;;;;;25.90;2.75;;;18.00;64.30;;;;;;4142562;28;20042;-63
2023/05/06 01:19:58;;;;;;;10.10;2.50;;;18.00;64.30;;;;;;4139184;28;20042;-61
2023/05/06 01:22:22;;;;;;;11.60;2.35;;;18.00;64.50;;;;;;4135532;28;20088;-60
2023/05/06 01:24:45;;;;;;;14.30;2.55;;;18.10;64.50;;;;;;4119786;28;20399;-64
2023/05/06 01:27:09;;;;;;;7.63;2.40;;;18.10;64.50;;;;;;4142059;28;20063;-59
2023/05/06 01:29:33;;;;;;;6.13;1.98;;;18.10;64.30;;;;;;4141052;28;20369;-60
2023/05/06 01:32:00;;;;;;;5.10;2.42;;;18.10;64.40;;;;;;4141706;28;20052;-60
2023/05/06 01:34:38;;;;;;;6.10;2.25;;;18.10;63.20;;;;;;4142616;28;20148;-60
2023/05/06 01:37:32;;;;;;;3.85;1.77;;;18.10;63.00;;;;;;4125430;28;20133;-59
2023/05/06 01:39:58;;;;;;;6.67;2.60;;;18.20;62.50;;;;;;4142760;28;20148;-59
2023/05/06 01:42:23;;;;;;;5.78;1.95;;;18.20;63.00;;;;;;4138975;28;20030;-59
2023/05/06 01:44:46;;;;;;;4.45;2.35;;;18.20;63.00;;;;;;4141816;28;20069;-60
2023/05/06 01:47:09;;;;;;;8.77;3.15;;;18.20;62.80;;;;;;4141474;28;20030;-62
2023/05/06 01:49:32;;;;;;;13.25;3.35;;;18.20;62.80;;;;;;4143130;28;20469;-60
2023/05/06 01:51:55;;;;;;;5.55;2.00;;;18.20;63.40;;;;;;4142569;28;20540;-60
2023/05/06 01:54:18;;;;;;;5.28;2.00;;;18.20;63.20;;;;;;4140336;28;20164;-57
2023/05/06 01:56:40;;;;;;;4.85;1.95;;;18.20;62.80;;;;;;4144051;28;20490;-53
2023/05/06 01:59:02;;;;;;;4.93;2.10;;;18.20;62.50;;;;;;4142168;28;20486;-50
2023/05/06 02:01:25;;;;;;;2.92;1.75;;;18.20;62.10;;;;;;4139309;28;20060;-52
2023/05/06 02:03:47;;;;;;;4.63;1.90;;;18.20;62.00;;;;;;4135297;28;20048;-52
2023/05/06 02:06:10;;;;;;;4.93;1.85;;;18.20;61.80;;;;;;4139474;28;20030;-53
2023/05/06 02:08:32;;;;;;;5.35;1.70;;;18.30;61.80;;;;;;4139791;28;20557;-55
2023/05/06 02:10:55;;;;;;;5.70;1.80;;;18.20;61.40;;;;;;4140591;28;20052;-52
2023/05/06 02:13:18;;;;;;;3.28;1.83;;;18.20;61.50;;;;;;4136588;28;20124;-55
2023/05/06 02:15:41;;;;;;;4.30;1.65;;;18.30;61.40;;;;;;4142826;28;20041;-54
2023/05/06 02:18:04;;;;;;;2.97;1.67;;;18.30;61.30;;;;;;4136259;28;20490;-53
2023/05/06 02:20:26;;;;;;;2.92;1.45;;;18.20;61.10;;;;;;4142317;28;20034;-53
2023/05/06 02:22:48;;;;;;;4.28;1.58;;;18.30;61.10;;;;;;4136988;28;20464;-52
2023/05/06 02:25:11;;;;;;;3.85;1.90;;;18.30;61.00;;;;;;4142760;28;20049;-55
2023/05/06 02:27:33;;;;;;;3.08;1.50;;;18.30;60.90;;;;;;4139860;28;20065;-53
2023/05/06 02:29:56;;;;;;;3.03;1.50;;;18.30;60.70;;;;;;4125909;28;20046;-53
2023/05/06 02:32:18;;;;;;;4.13;1.70;;;18.30;60.70;;;;;;4140599;28;20038;-56
2023/05/06 02:34:40;;;;;;;3.08;1.63;;;18.30;60.60;;;;;;4142201;28;20038;-56
2023/05/06 02:37:03;;;;;;;2.25;1.60;;;18.30;60.50;;;;;;4138267;28;20551;-56
2023/05/06 02:39:25;;;;;;;3.33;1.80;;;18.30;60.40;;;;;;4141240;28;20057;-55
2023/05/06 02:41:48;;;;;;;4.38;1.77;;;18.30;60.30;;;;;;4141523;28;20073;-54
2023/05/06 02:44:10;;;;;;;2.40;1.40;;;18.30;60.20;;;;;;4138623;28;20049;-53
2023/05/06 02:46:33;;;;;;;3.83;1.85;;;18.30;60.80;;;;;;4142068;28;20121;-56
2023/05/06 02:48:55;;;;;;;1.95;1.38;;;18.40;60.20;;;;;;4133637;28;20038;-54
2023/05/06 02:51:18;;;;;;;3.50;2.05;;;18.40;60.10;;;;;;4137917;28;20034;-54
2023/05/06 02:53:40;;;;;;;3.45;1.70;;;18.40;60.10;;;;;;4142182;28;20041;-56
2023/05/06 02:56:02;;;;;;;2.28;1.38;;;18.40;59.90;;;;;;4129775;28;20045;-55
2023/05/06 02:58:25;;;;;;;1.95;1.50;;;18.40;59.90;;;;;;4138679;28;20046;-52
2023/05/06 03:00:47;;;;;;;2.85;1.55;;;18.50;59.80;;;;;;4141997;28;20034;-52
2023/05/06 03:03:10;;;;;;;2.80;1.52;;;18.50;59.70;;;;;;4140397;28;20068;-55
2023/05/06 03:05:32;;;;;;;3.53;1.60;;;18.50;59.60;;;;;;4141065;28;20489;-55
2023/05/06 03:07:55;;;;;;;3.00;1.38;;;18.60;59.60;;;;;;4140479;28;20064;-53
2023/05/06 03:10:17;;;;;;;1.88;1.13;;;18.60;59.50;;;;;;4143632;28;20046;-51
2023/05/06 03:12:39;;;;;;;2.67;1.60;;;18.70;59.40;;;;;;4138183;28;20124;-55
2023/05/06 03:15:02;;;;;;;3.30;1.50;;;18.70;59.30;;;;;;4142165;28;20045;-54
2023/05/06 03:17:24;;;;;;;3.05;1.38;;;18.80;59.30;;;;;;4141456;28;20045;-55
2023/05/06 03:19:49;;;;;;;3.08;1.50;;;18.80;59.20;;;;;;4136331;28;20414;-55
2023/05/06 03:22:13;;;;;;;3.22;1.55;;;18.80;59.10;;;;;;4144088;28;20588;-56
2023/05/06 03:24:35;;;;;;;;;;;18.80;58.90;;;;;;4139938;28;20058;-56
2023/05/06 03:26:57;;;;;;;1.85;1.50;;;18.90;58.90;;;;;;4144608;28;21343;-57
2023/05/06 03:29:20;;;;;;;3.50;1.50;;;18.90;58.70;;;;;;4139252;28;20130;-53
2023/05/06 03:31:42;;;;;;;3.13;1.70;;;18.90;58.60;;;;;;4144615;28;20399;-54
2023/05/06 03:34:05;;;;;;;2.50;1.52;;;19.00;58.70;;;;;;4143135;28;20112;-54
2023/05/06 03:36:27;;;;;;;3.10;1.45;;;19.10;58.60;;;;;;4141025;28;20538;-56
2023/05/06 03:38:50;;;;;;;3.38;1.55;;;19.10;58.50;;;;;;4124171;28;20537;-55
2023/05/06 03:41:13;;;;;;;2.67;1.33;;;19.20;58.40;;;;;;4137069;28;20084;-55
2023/05/06 03:43:36;;;;;;;2.00;1.15;;;19.20;58.20;;;;;;4141372;28;20049;-54
2023/05/06 03:45:58;;;;;;;2.78;1.30;;;19.30;58.10;;;;;;4126564;28;20038;-52
2023/05/06 03:48:21;;;;;;;1.70;1.35;;;19.30;58.10;;;;;;4140929;28;20040;-55
2023/05/06 03:50:43;;;;;;;1.98;1.58;;;19.40;57.90;;;;;;4137488;28;20034;-55
2023/05/06 03:53:06;;;;;;;2.53;1.27;;;19.40;57.80;;;;;;4136551;28;20038;-55
2023/05/06 03:55:28;;;;;;;1.83;1.20;;;19.40;57.50;;;;;;4144305;28;20049;-54
2023/05/06 03:57:50;;;;;;;3.83;1.45;;;19.50;57.20;;;;;;4137211;28;20030;-56
2023/05/06 04:00:13;;;;;;;3.45;1.45;;;19.60;57.00;;;;;;4144682;28;20034;-56
2023/05/06 04:02:36;;;;;;;2.15;1.35;;;19.60;56.60;;;;;;4143588;28;20042;-53
2023/05/06 04:04:58;;;;;;;4.55;1.65;;;19.70;56.50;;;;;;4129144;28;20081;-55
2023/05/06 04:07:20;;;;;;;4.30;1.40;;;19.70;56.20;;;;;;4144526;28;20417;-54
2023/05/06 04:09:43;;;;;;;3.38;1.45;;;19.80;56.00;;;;;;4142314;28;20049;-53
2023/05/06 04:12:05;;;;;;;2.65;1.30;;;19.90;55.90;;;;;;4123966;28;20053;-52
2023/05/06 04:14:28;;;;;;;2.38;1.30;;;19.90;55.80;;;;;;4142344;28;20045;-55
2023/05/06 04:16:50;;;;;;;3.30;1.55;;;20.00;55.60;;;;;;4130543;28;20097;-56
2023/05/06 04:19:13;;;;;;;2.35;1.30;;;20.10;55.60;;;;;;4142368;28;20185;-55
2023/05/06 04:21:35;;;;;;;3.03;1.17;;;20.10;55.50;;;;;;4134412;28;20053;-56
2023/05/06 04:23:58;;;;;;;2.20;1.23;;;20.10;55.20;;;;;;4143099;28;20125;-56
2023/05/06 04:26:20;;;;;;;2.10;1.40;;;20.20;55.30;;;;;;4133655;28;20048;-55
2023/05/06 04:28:43;;;;;;;2.47;1.45;;;20.30;55.10;;;;;;4143587;28;20177;-55
2023/05/06 04:31:07;;;;;;;3.15;1.50;;;20.40;55.00;;;;;;4141986;28;20049;-57
2023/05/06 04:33:30;;;;;;;2.65;1.50;;;20.40;54.90;;;;;;4137349;28;20034;-53
2023/05/06 04:35:53;;;;;;;2.17;1.35;;;20.50;55.50;;;;;;4143304;28;20573;-54
2023/05/06 04:38:15;;;;;;;3.22;1.30;;;20.50;54.80;;;;;;4142088;28;20103;-55
2023/05/06 04:40:39;;;;;;;1.92;1.10;;;20.60;54.80;;;;;;4134910;28;20080;-57
2023/05/06 04:43:01;;;;;;;;;;;20.70;54.70;;;;;;4141167;28;20046;-55
2023/05/06 04:45:24;;;;;;;1.98;1.20;;;20.70;54.70;;;;;;4143639;28;20030;-57
2023/05/06 04:47:47;;;;;;;3.00;1.38;;;20.80;54.60;;;;;;4140308;28;20044;-57
2023/05/06 04:50:10;;;;;;;4.00;1.67;;;20.90;54.50;;;;;;4135512;28;20044;-53
2023/05/06 04:52:32;;;;;;;2.55;1.65;;;21.00;54.50;;;;;;4143229;28;20053;-56
2023/05/06 04:54:55;;;;;;;2.70;1.38;;;21.10;54.60;;;;;;4141892;28;20081;-57
2023/05/06 04:57:17;;;;;;;4.05;2.17;;;21.10;54.50;;;;;;4140059;28;20076;-55
2023/05/06 04:59:41;;;;;;;4.75;2.10;;;21.20;54.40;;;;;;4122591;28;20030;-55
2023/05/06 05:02:03;;;;;;;2.88;1.92;;;21.20;54.30;;;;;;4142383;28;20496;-57
2023/05/06 05:04:26;;;;;;;2.42;1.63;;;21.30;54.40;;;;;;4137825;28;20053;-57
2023/05/06 05:06:48;;;;;;;4.57;1.98;;;21.30;54.40;;;;;;4136728;28;20212;-56
2023/05/06 05:09:11;;;;;;;4.53;1.90;;;21.30;54.30;;;;;;4139277;28;20124;-55
2023/05/06 05:11:36;;;;;;;4.38;1.73;;;21.40;54.90;;;;;;4143226;28;20096;-55
2023/05/06 05:13:58;;;;;;;5.28;2.30;;;21.40;54.10;;;;;;4140487;28;20050;-57
2023/05/06 05:16:21;;;;;;;3.78;1.90;;;21.50;54.10;;;;;;4141501;28;20033;-57
2023/05/06 05:18:44;;;;;;;2.95;1.70;;;21.50;54.10;;;;;;4142629;28;20041;-55
2023/05/06 05:21:06;;;;;;;4.72;2.10;;;21.50;54.10;;;;;;4141422;28;20038;-56
2023/05/06 05:23:28;;;;;;;3.70;1.98;;;21.60;54.00;;;;;;4142952;28;20427;-56
2023/05/06 05:25:51;;;;;;;4.68;2.10;;;21.60;54.10;;;;;;4141538;28;20500;-55
2023/05/06 05:28:14;;;;;;;4.65;1.90;;;21.60;54.10;;;;;;4143846;28;20026;-50
2023/05/06 05:30:36;;;;;;;3.75;1.88;;;21.60;54.10;;;;;;4140828;28;20176;-55
2023/05/06 05:32:59;;;;;;;3.97;1.80;;;21.60;54.10;;;;;;4146163;28;20033;-52
2023/05/06 05:35:21;;;;;;;3.28;1.98;;;21.60;53.90;;;;;;4141074;28;20117;-56
2023/05/06 05:37:44;;;;;;;5.50;1.95;;;21.60;54.00;;;;;;4136738;28;20437;-56
2023/05/06 05:40:07;;;;;;;3.97;2.22;;;21.60;53.90;;;;;;4122510;28;20058;-52
2023/05/06 05:42:32;;;;;;;3.25;1.52;;;21.60;53.80;;;;;;4141041;28;20045;-56
2023/05/06 05:44:54;;;;;;;3.53;1.90;;;21.60;53.90;;;;;;4137926;28;20406;-56
2023/05/06 05:47:17;;;;;;;2.75;1.70;;;21.60;53.80;;;;;;4137626;28;20041;-55
2023/05/06 05:49:39;;;;;;;3.13;1.73;;;21.50;53.90;;;;;;4127890;28;20105;-54
2023/05/06 05:52:02;;;;;;;3.65;2.00;;;21.50;54.10;;;;;;4143127;28;20478;-54
2023/05/06 05:54:24;;;;;;;2.83;1.70;;;21.50;54.30;;;;;;4144086;28;20200;-51
2023/05/06 05:56:47;;;;;;;3.78;1.80;;;21.40;54.30;;;;;;4139159;28;20066;-55
2023/05/06 05:59:09;;;;;;;2.90;1.60;;;21.40;54.40;;;;;;4142026;28;20060;-52
2023/05/06 06:01:32;;;;;;;3.88;1.85;;;21.40;54.50;;;;;;4135029;28;20038;-53
2023/05/06 06:03:55;;;;;;;3.67;1.73;;;21.30;54.60;;;;;;4143505;28;20056;-52
2023/05/06 06:06:17;;;;;;;3.28;1.30;;;21.30;54.70;;;;;;4129572;28;20042;-56
2023/05/06 06:08:40;;;;;;;3.58;1.85;;;21.30;54.70;;;;;;4146901;28;20500;-55
2023/05/06 06:11:04;;;;;;;3.63;1.80;;;21.30;54.70;;;;;;4125666;28;20058;-55
2023/05/06 06:13:26;;;;;;;;;;;21.30;54.60;;;;;;4128163;28;20392;-52
2023/05/06 06:15:49;;;;;;;2.60;1.23;;;21.30;54.70;;;;;;4139720;28;20015;-56
2023/05/06 06:18:11;;;;;;;2.75;1.33;;;21.30;54.60;;;;;;4138225;28;20505;-53
2023/05/06 06:20:35;;;;;;;3.20;1.58;;;21.30;54.70;;;;;;4143007;28;20045;-56
2023/05/06 06:22:57;;;;;;;3.30;1.50;;;21.30;54.80;;;;;;4138219;28;20033;-54
2023/05/06 06:25:20;;;;;;;2.70;1.30;;;21.30;54.90;;;;;;4139715;28;20522;-51
2023/05/06 06:27:42;;;;;;;3.85;1.45;;;21.30;55.00;;;;;;4142165;28;20030;-56
2023/05/06 06:30:06;;;;;;;2.47;1.25;;;21.30;55.00;;;;;;4142484;28;20152;-51
2023/05/06 06:32:28;;;;;;;3.17;1.73;;;21.30;55.00;;;;;;4141975;28;20096;-52
2023/05/06 06:34:50;;;;;;;2.65;1.40;;;21.30;54.80;;;;;;4139731;28;20052;-52
2023/05/06 06:37:13;;;;;;;3.15;1.38;;;21.30;54.70;;;;;;4141196;28;20030;-49
2023/05/06 06:39:35;;;;;;;2.42;1.30;;;21.30;54.60;;;;;;4142697;28;20141;-54
2023/05/06 06:41:58;;;;;;;4.10;1.50;;;21.60;54.10;;;;;;4139747;28;21144;-55
2023/05/06 06:44:20;;;;;;;3.67;1.77;;;22.20;52.30;;;;;;4138609;28;20099;-53
2023/05/06 06:46:42;;;;;;;2.40;1.50;;;22.90;50.80;;;;;;4129770;28;20042;-54
2023/05/06 06:49:05;;;;;;;2.90;1.58;;;23.40;49.60;;;;;;4137736;28;20070;-53
2023/05/06 06:51:27;;;;;;;3.28;1.58;;;23.70;48.90;;;;;;4138397;28;20034;-52
2023/05/06 06:53:51;;;;;;;2.92;1.70;;;23.70;48.70;;;;;;4138424;28;20165;-54
2023/05/06 06:56:14;;;;;;;3.00;1.40;;;23.10;49.60;;;;;;4131000;28;20375;-54
2023/05/06 06:58:37;;;;;;;3.97;1.20;;;22.60;50.80;;;;;;4145290;28;20042;-52
2023/05/06 07:00:59;;;;;;;2.08;1.13;;;22.20;51.80;;;;;;4145143;28;20775;-52
2023/05/06 07:03:22;;;;;;;2.03;1.20;;;21.90;52.50;;;;;;4143157;28;20554;-56
2023/05/06 07:05:44;;;;;;;3.17;1.20;;;21.60;53.10;;;;;;4141192;28;20034;-54
2023/05/06 07:08:07;;;;;;;2.10;1.20;;;21.40;53.60;;;;;;4143319;28;20030;-51
2023/05/06 07:10:29;;;;;;;3.70;1.50;;;21.30;54.00;;;;;;4128248;28;20042;-55
2023/05/06 07:12:52;;;;;;;2.65;1.25;;;21.20;54.20;;;;;;4137478;28;20025;-56
2023/05/06 07:15:15;;;;;;;2.23;1.60;;;21.10;54.50;;;;;;4144902;28;20137;-55
2023/05/06 07:17:37;;;;;;;2.08;1.10;;;21.00;54.60;;;;;;4137929;28;20125;-54
2023/05/06 07:20:00;;;;;;;2.42;1.40;;;21.00;54.80;;;;;;4145619;28;20088;-54
2023/05/06 07:22:22;;;;;;;3.15;1.48;;;21.00;54.90;;;;;;4143452;28;20046;-54
2023/05/06 07:24:44;;;;;;;3.35;1.52;;;20.90;55.00;;;;;;4138833;28;20049;-54
2023/05/06 07:27:07;;;;;;;3.13;1.30;;;20.90;55.10;;;;;;4144262;28;20530;-54
2023/05/06 07:29:30;;;;;;;3.55;1.10;;;20.80;55.10;;;;;;4148202;28;20045;-55
2023/05/06 07:31:52;;;;;;;1.90;1.30;;;20.80;55.20;;;;;;4131460;28;20038;-54
2023/05/06 07:34:14;;;;;;;5.00;1.75;;;20.80;55.40;;;;;;4137345;28;20042;-53
2023/05/06 07:36:41;;;;;;;2.30;1.23;;;20.70;55.40;;;;;;4144907;28;20056;-56
2023/05/06 07:39:04;;;;;;;2.80;1.30;;;20.70;55.40;;;;;;4139746;28;20052;-55
2023/05/06 07:41:26;;;;;;;3.08;1.35;;;20.70;55.50;;;;;;4143311;28;20037;-55
2023/05/06 07:43:49;;;;;;;2.90;1.42;;;20.70;55.70;;;;;;4135906;28;20417;-55
2023/05/06 07:46:11;;;;;;;3.08;1.30;;;20.60;55.70;;;;;;4145633;28;20038;-54
2023/05/06 07:48:34;;;;;;;2.85;1.50;;;20.60;55.80;;;;;;4142681;28;20516;-52
2023/05/06 07:50:56;;;;;;;2.95;1.48;;;20.60;55.90;;;;;;4137072;28;20038;-52
2023/05/06 07:53:19;;;;;;;2.42;1.30;;;20.60;56.00;;;;;;4139571;28;20079;-53
2023/05/06 07:55:41;;;;;;;3.13;1.60;;;20.60;56.00;;;;;;4140900;28;20442;-52
2023/05/06 07:58:04;;;;;;;3.30;1.38;;;20.60;56.00;;;;;;4141250;28;20034;-53
2023/05/06 08:00:26;;;;;;;4.18;1.65;;;20.50;56.00;;;;;;4146601;28;20121;-53
2023/05/06 08:02:49;;;;;;;2.75;1.55;;;20.50;56.10;;;;;;4144347;28;20041;-51
2023/05/06 08:05:12;;;;;;;2.40;1.55;;;20.50;56.80;;;;;;4143188;28;20038;-54
2023/05/06 08:07:34;;;;;;;2.15;1.35;;;20.50;56.20;;;;;;4130607;28;20034;-54
2023/05/06 08:09:57;;;;;;;2.50;1.63;;;20.50;56.30;;;;;;4145679;28;20121;-52
2023/05/06 08:12:20;;;;;;;2.75;1.52;;;20.50;56.30;;;;;;4143704;28;20033;-53
2023/05/06 08:14:42;;;;;;;4.07;1.60;;;20.50;56.40;;;;;;4144133;28;20921;-55
2023/05/06 08:17:04;;;;;;;2.15;1.40;;;20.40;56.30;;;;;;4125572;28;20049;-52
2023/05/06 08:19:27;;;;;;;3.17;1.58;;;20.40;56.40;;;;;;4143738;28;20042;-52
2023/05/06 08:21:50;;;;;;;4.05;1.80;;;20.40;56.40;;;;;;4135979;28;20106;-55
2023/05/06 08:24:12;;;;;;;2.90;1.70;;;20.40;56.40;;;;;;4141175;28;20041;-51
2023/05/06 08:26:35;;;;;;;3.08;1.67;;;20.40;56.50;;;;;;4142412;28;20046;-54
2023/05/06 08:28:58;;;;;;;3.40;1.80;;;20.40;56.50;;;;;;4143741;28;20049;-55
2023/05/06 08:31:20;;;;;;;3.60;1.47;;;20.40;56.50;;;;;;4142917;28;20033;-55
2023/05/06 08:33:43;;;;;;;1.92;1.50;;;20.30;56.60;;;;;;4142450;28;20041;-53
2023/05/06 08:36:05;;;;;;;4.57;1.92;;;20.30;56.60;;;;;;4142614;28;20120;-52
2023/05/06 08:38:28;;;;;;;3.00;1.80;;;20.30;56.70;;;;;;4143993;28;20060;-53
2023/05/06 08:40:53;;;;;;;3.40;2.00;;;20.30;56.70;;;;;;4140603;28;20136;-54
2023/05/06 08:43:19;;;;;;;4.05;2.10;;;20.30;56.70;;;;;;4135215;28;20068;-53
2023/05/06 08:45:42;;;;;;;2.42;1.58;;;20.30;56.80;;;;;;4141894;28;20041;-53
2023/05/06 08:48:05;;;;;;;3.20;1.90;;;20.30;56.90;;;;;;4142256;28;20045;-52
2023/05/06 08:50:28;;;;;;;3.58;2.15;;;20.30;56.90;;;;;;4141628;28;20034;-54
2023/05/06 08:52:51;;;;;;;4.95;2.50;;;20.30;56.90;;;;;;4140702;28;20050;-52
2023/05/06 08:55:13;;;;;;;2.70;1.85;;;20.30;56.90;;;;;;4142804;28;20123;-55
2023/05/06 08:57:37;;;;;;;4.07;2.28;;;20.30;57.00;;;;;;4139717;28;20060;-53
2023/05/06 09:00:00;;;;;;;3.67;2.25;;;20.20;57.00;;;;;;4137211;28;20030;-53
2023/05/06 09:02:23;;;;;;;3.30;2.00;;;20.30;57.00;;;;;;4132696;28;20497;-53
2023/05/06 09:04:46;;;;;;;3.85;2.38;;;20.20;57.00;;;;;;4119722;28;20098;-55
2023/05/06 09:07:08;;;;;;;3.88;2.40;;;20.20;57.00;;;;;;4130884;28;20179;-52
2023/05/06 09:09:30;;;;;;;4.22;2.47;;;20.20;57.10;;;;;;4133044;28;20513;-51
2023/05/06 09:11:56;;;;;;;3.70;2.50;;;20.20;57.10;;;;;;4133222;28;20121;-54
2023/05/06 09:14:18;;;;;;;3.17;2.17;;;20.20;57.20;;;;;;4129615;28;20535;-52
2023/05/06 09:16:46;;;;;;;3.95;2.42;;;20.10;57.20;;;;;;4131978;28;20046;-54
2023/05/06 09:19:09;;;;;;;3.85;2.50;;;20.20;57.30;;;;;;4131501;28;20462;-54
2023/05/06 09:21:39;;;;;;;3.00;2.30;;;20.10;57.30;;;;;;4131559;28;20089;-52
2023/05/06 09:24:04;;;;;;;3.80;2.80;;;20.10;57.20;;;;;;4132333;28;20041;-51
2023/05/06 09:26:30;;;;;;;4.65;2.78;;;20.10;57.20;;;;;;4132823;28;20077;-51
2023/05/06 09:28:53;;;;;;;3.92;2.45;;;20.20;57.40;;;;;;4132118;28;20563;-55
2023/05/06 09:31:16;;;;;;;3.20;2.22;;;20.10;57.30;;;;;;4133230;28;20050;-52
2023/05/06 09:33:38;;;;;;;3.60;2.38;;;20.10;57.40;;;;;;4131154;28;20044;-55
2023/05/06 09:36:01;;;;;;;3.78;2.60;;;20.10;57.30;;;;;;4132394;28;20046;-52
2023/05/06 09:38:24;;;;;;;3.65;2.40;;;20.10;57.40;;;;;;4134113;28;20223;-54
2023/05/06 09:40:46;;;;;;;3.50;2.38;;;20.10;57.40;;;;;;4129867;28;20101;-52
2023/05/06 09:43:09;;;;;;;3.83;2.58;;;20.10;57.40;;;;;;4137192;28;20037;-52
2023/05/06 09:45:32;;;;;;;4.60;2.83;;;20.10;57.40;;;;;;4135209;28;20046;-54
2023/05/06 09:47:55;;;;;;;4.00;2.63;;;20.10;57.50;;;;;;4131320;28;20038;-56
2023/05/06 09:50:19;;;;;;;4.00;2.60;;;20.10;57.50;;;;;;4132536;28;20048;-55
2023/05/06 09:52:47;;;;;;;4.35;2.88;;;20.00;57.40;;;;;;4134894;28;20067;-52
2023/05/06 09:55:10;;;;;;;4.78;3.08;;;20.00;57.50;;;;;;4126355;28;20053;-52
2023/05/06 09:57:33;;;;;;;3.58;2.78;;;20.00;57.60;;;;;;4135812;28;20163;-54
2023/05/06 09:59:56;;;;;;;5.25;3.10;;;20.00;57.60;;;;;;4131642;28;20030;-54
2023/05/06 10:02:21;;;;;;;4.00;2.95;;;20.00;57.60;;;;;;4132702;28;20037;-50
2023/05/06 10:04:45;;;;;;;4.95;2.70;;;20.00;57.70;;;;;;4131362;28;20048;-51
2023/05/06 10:07:12;;;;;;;3.83;2.92;;;20.00;57.70;;;;;;4130077;28;20087;-54
2023/05/06 10:09:36;;;;;;;3.78;2.65;;;20.00;57.80;;;;;;4137218;28;20128;-55
2023/05/06 10:11:59;;;;;;;4.50;2.78;;;20.00;57.80;;;;;;4132540;28;20497;-51
2023/05/06 10:14:22;;;;;;;4.35;3.10;;;19.90;57.80;;;;;;4130906;28;20065;-51
2023/05/06 10:16:48;;;;;;;4.05;2.95;;;19.90;57.90;;;;;;4130173;28;20508;-54
2023/05/06 10:19:14;;;;;;;5.13;3.35;;;19.90;57.90;;;;;;4130634;28;20081;-53
2023/05/06 10:21:43;;;;;;;4.22;3.25;;;19.90;57.90;;;;;;4130213;28;20279;-53
2023/05/06 10:24:07;;;;;;;5.70;3.15;;;19.90;58.00;;;;;;4127660;28;20104;-51
2023/05/06 10:26:30;;;;;;;6.00;3.55;;;19.90;58.00;;;;;;4134941;28;20038;-52
2023/05/06 10:28:53;;;;;;;4.90;3.35;;;19.90;58.10;;;;;;4129759;28;20527;-53
2023/05/06 10:31:16;;;;;;;5.85;3.63;;;19.80;58.00;;;;;;4128407;28;20448;-51
2023/05/06 10:33:51;;;;;;;4.47;3.25;;;19.80;58.10;;;;;;4130935;28;20136;-55
2023/05/06 10:36:23;;;;;;;5.45;3.65;;;19.80;58.00;;;;;;4132668;28;20064;-53
2023/05/06 10:38:49;;;;;;;4.95;3.78;;;19.80;58.10;;;;;;4126922;28;20153;-54
2023/05/06 10:41:13;;;;;;;5.88;3.72;;;19.80;58.10;;;;;;4127730;28;20056;-54
2023/05/06 10:43:43;;;;;;;5.10;3.80;;;19.80;58.20;;;;;;4133298;28;20179;-53
2023/05/06 10:46:11;;;;;;;4.97;3.60;;;19.80;58.20;;;;;;4132838;28;20049;-55
2023/05/06 10:48:34;;;;;;;4.80;3.72;;;19.70;58.10;;;;;;4118255;28;20161;-54
2023/05/06 10:51:20;;;;;;;7.38;4.30;;;19.70;58.20;;;;;;4128349;28;20100;-55
2023/05/06 10:53:58;;;;;;;5.93;3.92;;;19.70;58.20;;;;;;4130604;28;20580;-55
2023/05/06 10:56:20;;;;;;;5.47;3.72;;;19.70;58.20;;;;;;4131313;28;20529;-54
2023/05/06 10:58:49;;;;;;;5.45;3.97;;;19.70;58.20;;;;;;4134888;28;20033;-53
2023/05/06 11:01:14;;;;;;;5.55;4.30;;;19.70;58.20;;;;;;4114403;28;20077;-54
2023/05/06 11:03:36;;;;;;;5.85;4.22;;;19.70;58.30;;;;;;4133775;28;20112;-54
2023/05/06 11:05:59;;;;;;;6.20;4.30;;;19.70;58.40;;;;;;4133478;28;20092;-54
2023/05/06 11:08:24;;;;;;;5.55;3.95;;;19.70;58.40;;;;;;4130383;28;20030;-54
2023/05/06 11:10:47;;;;;;;5.63;4.70;;;19.70;58.40;;;;;;4131286;28;20068;-52
2023/05/06 11:13:21;;;;;;;5.32;4.22;;;19.70;58.40;;;;;;4132928;28;20041;-53
2023/05/06 11:15:45;;;;;;;6.43;4.57;;;19.60;58.40;;;;;;4129294;28;20050;-53
2023/05/06 11:18:30;;;;;;;6.10;5.07;;;19.60;58.30;;;;;;4135726;28;20488;-52
2023/05/06 11:21:19;;;;;;;6.63;5.15;;;19.70;58.50;;;;;;4134198;28;20470;-50
2023/05/06 11:23:53;;;;;;;5.78;4.43;;;19.60;58.50;;;;;;4133596;28;20085;-55
2023/05/06 11:26:16;;;;;;;5.63;4.55;;;19.60;58.40;;;;;;4134289;28;20096;-50
2023/05/06 11:28:50;;;;;;;5.95;4.93;;;19.60;58.50;;;;;;4131350;28;20034;-53
2023/05/06 11:31:13;;;;;;;7.43;5.22;;;19.60;58.50;;;;;;4132135;28;20038;-54
2023/05/06 11:33:36;;;;;;;6.30;5.60;;;19.60;58.40;;;;;;4135026;28;20038;-52
2023/05/06 11:36:03;;;;;;;6.75;5.15;;;19.60;58.50;;;;;;4131470;28;20092;-52
2023/05/06 11:38:47;;;;;;;5.93;5.32;;;19.60;58.60;;;;;;4133636;28;20075;-52
2023/05/06 11:41:09;;;;;;;6.20;5.20;;;19.50;58.60;;;;;;4132429;28;20119;-55
2023/05/06 11:43:32;;;;;;;8.00;5.70;;;19.50;58.60;;;;;;4134209;28;20042;-53
2023/05/06 11:45:54;;;;;;;7.20;5.65;;;19.50;58.60;;;;;;4127374;28;20073;-53
2023/05/06 11:48:17;;;;;;;6.22;5.00;;;19.50;58.60;;;;;;4132104;28;20045;-50
2023/05/06 11:50:46;;;;;;;6.15;5.30;;;19.50;58.60;;;;;;4133651;28;20045;-52
2023/05/06 11:53:08;;;;;;;7.65;5.35;;;19.50;58.60;;;;;;4129746;28;20486;-54
2023/05/06 11:55:31;;;;;;;6.20;5.10;;;19.50;58.70;;;;;;4131563;28;20121;-52
2023/05/06 11:57:53;;;;;;;7.28;5.32;;;19.50;58.70;;;;;;4129021;28;20064;-48
2023/05/06 12:00:17;;;;;;;5.68;4.90;;;19.40;58.70;;;;;;4133747;28;20049;-52
2023/05/06 12:02:40;;;;;;;7.07;6.28;;;19.40;58.70;;;;;;4142303;28;20061;-52
2023/05/06 12:05:03;;;;;;;8.13;5.90;;;19.40;58.70;;;;;;4143301;28;20046;-51
2023/05/06 12:07:26;;;;;;;6.90;5.47;;;19.40;58.70;;;;;;4144148;28;20045;-53
2023/05/06 12:09:49;;;;;;;8.00;5.75;;;19.40;58.80;;;;;;4144030;28;20050;-52
2023/05/06 12:12:15;;;;;;;8.20;5.97;;;19.40;58.70;;;;;;4145271;28;20042;-53
2023/05/06 12:14:38;;;;;;;6.78;5.40;;;19.40;58.80;;;;;;4142825;28;20061;-50
2023/05/06 12:17:00;;;;;;;6.78;5.53;;;19.40;58.80;;;;;;4139410;28;20461;-50
2023/05/06 12:19:23;;;;;;;6.50;5.60;;;19.30;58.80;;;;;;4143775;28;20045;-52
2023/05/06 12:21:45;;;;;;;6.68;5.53;;;19.40;58.80;;;;;;4140637;28;20179;-53
2023/05/06 12:24:08;;;;;;;6.93;5.25;;;19.40;58.80;;;;;;4144524;28;20034;-52
2023/05/06 12:26:48;;;;;;;6.85;5.68;;;19.30;58.80;;;;;;4146049;28;20529;-52
2023/05/06 12:29:14;;;;;;;6.72;5.55;;;19.30;58.70;;;;;;4137918;28;20038;-48